.
WxDataArchive / Data Records for 2011-11-17
2011-11-16 November 2011 2011-11-18

Data Records for Thursday, 17 November 2011

Time	Temp	Chill	HIndex	Humid	Dewpt	 Wind 	HiWind	WindDir	Rain 	Barom 
-----	----	-----	------	-----	-----	------	------	-------	-----	----- 
00:00	34.3	34.3	34.3	65	23.8	0	0	---	0.00	30.107 
00:05	34.3	34.3	34.3	65	23.8	0	0	---	0.00	30.107 
00:10	34.3	34.3	34.3	65	23.8	0	1	315	0.00	30.107 
00:15	34.4	34.4	34.4	64	23.5	0	0	---	0.00	30.108 
00:20	34.4	34.4	34.4	64	23.5	0	0	---	0.00	30.108 
00:25	34.4	34.4	34.4	64	23.5	0	1	315	0.00	30.108 
00:30	34.4	34.4	34.4	64	23.5	0	0	---	0.00	30.113 
00:35	34.3	34.3	34.3	64	23.4	0	0	---	0.00	30.113 
00:40	34.3	34.3	34.3	64	23.4	0	1	315	0.00	30.113 
00:45	34.1	34.1	34.1	64	23.2	0	0	---	0.00	30.116 
00:50	34.1	34.1	34.1	64	23.2	0	0	---	0.00	30.116 
00:55	34.0	34.0	34.0	65	23.5	0	0	---	0.00	30.116 
01:00	33.8	33.8	33.8	65	23.3	0	1	315	0.00	30.116 
01:05	33.8	33.8	33.8	65	23.3	0	0	---	0.00	30.116 
01:10	33.8	33.8	33.8	64	22.9	0	0	---	0.00	30.116 
01:15	33.7	33.7	33.7	64	22.8	0	0	---	0.00	30.116 
01:20	33.5	33.5	33.5	64	22.6	0	0	---	0.00	30.116 
01:25	33.5	33.5	33.5	64	22.6	0	0	---	0.00	30.116 
01:30	33.5	33.5	33.5	64	22.6	0	0	---	0.00	30.116 
01:35	33.4	33.4	33.4	64	22.6	0	0	---	0.00	30.116 
01:40	33.4	33.4	33.4	64	22.6	0	0	---	0.00	30.116 
01:45	33.2	33.2	33.2	64	22.4	0	0	---	0.00	30.118 
01:50	33.1	33.1	33.1	64	22.3	0	0	---	0.00	30.118 
01:55	32.9	32.9	32.9	64	22.1	0	0	---	0.00	30.118 
02:00	32.8	32.8	32.8	64	22.0	0	0	---	0.00	30.118 
02:05	32.7	32.7	32.7	65	22.3	0	0	---	0.00	30.118 
02:10	32.5	32.5	32.5	66	22.4	0	0	---	0.00	30.118 
02:15	32.5	32.5	32.5	66	22.4	0	0	---	0.00	30.118 
02:20	32.4	32.4	32.4	67	22.7	0	0	---	0.00	30.118 
02:25	32.2	32.2	32.2	67	22.5	0	0	---	0.00	30.118 
02:30	32.1	32.1	32.1	67	22.4	0	0	---	0.00	30.120 
02:35	32.1	32.1	32.1	67	22.4	0	0	---	0.00	30.120 
02:40	32.1	32.1	32.1	67	22.4	0	0	---	0.00	30.120 
02:45	32.1	32.1	32.1	67	22.4	0	0	---	0.00	30.120 
02:50	32.1	32.1	32.1	67	22.4	0	0	---	0.00	30.120 
02:55	32.1	32.1	32.1	67	22.4	0	1	315	0.00	30.120 
03:00	32.2	32.2	32.2	66	22.1	0	1	315	0.00	30.119 
03:05	32.4	32.4	32.4	65	22.0	0	2	315	0.00	30.119 
03:10	32.5	32.5	32.5	65	22.1	0	1	315	0.00	30.119 
03:15	32.5	32.5	32.5	64	21.7	0	1	315	0.00	30.117 
03:20	32.7	32.7	32.7	63	21.5	0	2	292	0.00	30.117 
03:25	32.8	32.8	32.8	62	21.2	0	1	292	0.00	30.117 
03:30	32.9	32.9	32.9	61	20.9	0	3	248	0.00	30.117 
03:35	32.9	32.9	32.9	61	20.9	0	1	248	0.00	30.117 
03:40	32.9	32.9	32.9	60	20.6	0	2	248	0.00	30.117 
03:45	32.9	32.9	32.9	59	20.2	0	1	248	0.00	30.117 
03:50	32.8	32.8	32.8	59	20.1	0	2	248	0.00	30.117 
03:55	32.8	32.8	32.8	58	19.7	0	3	248	0.00	30.117 
04:00	32.8	32.8	32.8	58	19.7	0	2	248	0.00	30.119 
04:05	32.8	32.8	32.8	58	19.7	0	1	248	0.00	30.119 
04:10	32.7	32.7	32.7	58	19.6	0	1	248	0.00	30.119 
04:15	32.7	32.7	32.7	58	19.6	0	1	248	0.00	30.122 
04:20	32.5	32.5	32.5	58	19.4	0	2	248	0.00	30.122 
04:25	32.5	32.5	32.5	58	19.4	0	2	248	0.00	30.122 
04:30	32.5	32.5	32.5	58	19.4	0	2	248	0.00	30.122 
04:35	32.5	32.5	32.5	58	19.4	0	2	248	0.00	30.122 
04:40	32.4	32.4	32.4	58	19.3	0	3	248	0.00	30.122 
04:45	32.4	32.4	32.4	57	18.9	0	3	248	0.00	30.122 
04:50	32.4	32.4	32.4	57	18.9	0	2	248	0.00	30.122 
04:55	32.2	32.2	32.2	57	18.7	1	3	248	0.00	30.122 
05:00	32.2	32.2	32.2	57	18.7	0	3	248	0.00	30.124 
05:05	32.2	32.2	32.2	57	18.7	0	3	248	0.00	30.124 
05:10	32.1	32.1	32.1	56	18.2	0	2	248	0.00	30.124 
05:15	31.9	31.9	31.9	56	18.0	0	2	248	0.00	30.126 
05:20	31.9	31.9	31.9	55	17.6	1	4	248	0.00	30.126 
05:25	31.9	31.9	31.9	54	17.2	1	3	248	0.00	30.126 
05:30	31.9	31.9	31.9	54	17.2	1	3	270	0.00	30.126 
05:35	31.8	31.8	31.8	53	16.6	0	3	248	0.00	30.126 
05:40	31.8	31.8	31.8	53	16.6	1	4	248	0.00	30.126 
05:45	31.8	31.8	31.8	52	16.2	1	4	270	0.00	30.127 
05:50	31.8	31.8	31.8	51	15.8	1	4	270	0.00	30.127 
05:55	31.8	31.8	31.8	51	15.8	1	3	248	0.00	30.127 
06:00	31.8	31.8	31.8	51	15.8	1	3	248	0.00	30.126 
06:05	31.8	31.8	31.8	51	15.8	1	3	248	0.00	30.126 
06:10	31.6	31.6	31.6	52	16.0	1	3	225	0.00	30.126 
06:15	31.5	31.5	31.5	52	15.9	1	3	248	0.00	30.118 
06:20	31.5	31.5	31.5	52	15.9	1	3	248	0.00	30.118 
06:25	31.3	31.3	31.3	53	16.2	1	3	248	0.00	30.118 
06:30	31.2	31.2	31.2	54	16.5	1	4	248	0.00	30.118 
06:35	31.0	31.0	31.0	54	16.3	0	4	248	0.00	30.118 
06:40	30.9	30.9	30.9	54	16.2	0	3	248	0.00	30.118 
06:45	30.7	30.7	30.7	55	16.5	1	3	248	0.00	30.117 
06:50	30.7	30.7	30.7	56	16.9	1	4	248	0.00	30.117 
06:55	30.6	30.6	30.6	56	16.8	1	4	248	0.00	30.117 
07:00	30.4	30.4	30.4	57	17.0	1	4	248	0.00	30.118 
07:05	30.4	30.4	30.4	57	17.0	2	4	248	0.00	30.118 
07:10	30.3	30.3	30.3	57	16.9	1	4	270	0.00	30.118 
07:15	30.1	30.1	30.1	58	17.1	1	3	248	0.00	30.128 
07:20	30.1	30.1	30.1	58	17.1	1	4	248	0.00	30.128 
07:25	30.1	30.1	30.1	58	17.1	1	4	248	0.00	30.128 
07:30	30.1	30.1	30.1	58	17.1	2	3	248	0.00	30.129 
07:35	30.1	30.1	30.1	59	17.5	1	4	248	0.00	30.129 
07:40	30.0	30.0	30.0	59	17.4	1	3	248	0.00	30.129 
07:45	29.8	29.8	29.8	59	17.2	1	4	248	0.00	30.131 
07:50	29.8	29.8	29.8	60	17.6	1	4	248	0.00	30.131 
07:55	29.8	29.8	29.8	60	17.6	1	4	248	0.00	30.131 
08:00	30.0	30.0	30.0	60	17.8	2	5	248	0.00	30.132 
08:05	30.0	30.0	30.0	60	17.8	1	5	270	0.00	30.132 
08:10	30.1	30.1	30.1	60	17.9	1	3	248	0.00	30.132 
08:15	30.3	30.3	30.3	60	18.1	1	4	248	0.00	30.133 
08:20	30.6	30.6	30.6	59	18.0	1	4	248	0.00	30.133 
08:25	30.7	30.7	30.7	59	18.1	1	4	248	0.00	30.133 
08:30	30.9	30.9	30.9	58	17.9	1	4	248	0.00	30.138 
08:35	31.0	31.0	31.0	58	18.0	1	6	248	0.00	30.138 
08:40	31.2	31.2	31.2	58	18.2	2	4	248	0.00	30.138 
08:45	31.2	31.2	31.2	56	17.4	3	5	270	0.00	30.145 
08:50	31.3	31.3	31.3	57	17.9	2	4	248	0.00	30.145 
08:55	31.5	31.5	31.5	56	17.6	3	5	270	0.00	30.145 
09:00	31.6	31.6	31.6	56	17.7	3	7	270	0.00	30.148 
09:05	31.8	31.8	31.8	54	17.1	3	5	270	0.00	30.148 
09:10	31.9	31.9	31.9	54	17.2	3	6	270	0.00	30.148 
09:15	32.1	32.1	32.1	54	17.4	2	5	270	0.00	30.149 
09:20	32.2	32.2	32.2	54	17.4	3	5	270	0.00	30.149 
09:25	32.4	32.4	32.4	53	17.2	3	6	270	0.00	30.149 
09:30	32.4	32.4	32.4	52	16.8	3	5	270	0.00	30.152 
09:35	32.7	32.7	32.7	53	17.5	2	5	292	0.00	30.152 
09:40	32.8	32.8	32.8	50	16.2	3	10	248	0.00	30.152 
09:45	32.8	29.0	32.8	49	15.8	4	10	270	0.00	30.150 
09:50	32.8	32.8	32.8	50	16.2	3	5	248	0.00	30.150 
09:55	32.9	29.1	32.9	48	15.4	4	7	270	0.00	30.150 
10:00	33.1	33.1	33.1	48	15.6	3	6	270	0.00	30.155 
10:05	32.9	28.1	32.9	46	14.4	5	9	270	0.00	30.155 
10:10	32.9	29.1	32.9	48	15.4	4	7	270	0.00	30.155 
10:15	32.9	29.1	32.9	46	14.4	4	7	270	0.00	30.151 
10:20	32.9	28.1	32.9	46	14.4	5	10	270	0.00	30.151 
10:25	33.2	29.5	33.2	47	15.2	4	7	270	0.00	30.151 
10:30	33.5	33.5	33.5	47	15.5	3	6	270	0.00	30.157 
10:35	33.7	29.1	33.7	46	15.1	5	7	270	0.00	30.157 
10:40	33.5	29.8	33.5	46	15.0	4	7	270	0.00	30.157 
10:45	33.8	33.8	33.8	47	15.7	3	5	270	0.00	30.159 
10:50	33.8	29.2	33.8	45	14.7	5	7	270	0.00	30.159 
10:55	33.8	30.2	33.8	46	15.2	4	6	270	0.00	30.159 
11:00	33.8	29.2	33.8	44	14.2	5	8	270	0.00	30.161 
11:05	33.8	30.2	33.8	45	14.7	4	6	270	0.00	30.161 
11:10	33.8	29.2	33.8	45	14.7	5	9	270	0.00	30.161 
11:15	33.8	30.2	33.8	46	15.2	4	7	270	0.00	30.161 
11:20	34.1	30.5	34.1	46	15.5	4	9	270	0.00	30.161 
11:25	34.3	30.7	34.3	46	15.7	4	7	270	0.00	30.161 
11:30	34.1	30.5	34.1	45	15.0	4	7	270	0.00	30.161 
11:35	34.1	29.5	34.1	44	14.5	5	9	270	0.00	30.161 
11:40	34.3	30.7	34.3	45	15.2	4	7	270	0.00	30.161 
11:45	34.4	30.8	34.4	45	15.3	4	7	270	0.00	30.157 
11:50	34.3	29.8	34.3	43	14.2	5	10	270	0.00	30.157 
11:55	34.4	30.8	34.4	44	14.8	4	9	270	0.00	30.157 
12:00	34.9	34.9	34.9	43	14.7	3	6	270	0.00	30.154 
12:05	34.9	31.4	34.9	42	14.2	4	9	270	0.00	30.154 
12:10	34.7	31.2	34.7	43	14.5	4	7	270	0.00	30.154 
12:15	34.9	31.4	34.9	43	14.7	4	8	270	0.00	30.151 
12:20	34.7	30.2	34.7	41	13.4	5	11	270	0.00	30.151 
12:25	34.7	30.2	34.7	42	14.0	5	9	270	0.00	30.151 
12:30	35.2	31.8	35.2	44	15.5	4	7	270	0.00	30.150 
12:35	35.3	35.3	35.3	44	15.6	3	5	248	0.00	30.150 
12:40	35.3	31.9	35.3	42	14.5	4	10	270	0.00	30.150 
12:45	34.6	30.1	34.6	43	14.4	5	10	270	0.00	30.146 
12:50	34.6	31.1	34.6	43	14.4	4	7	292	0.00	30.146 
12:55	34.6	34.6	34.6	45	15.5	3	7	292	0.00	30.146 
13:00	35.0	31.5	35.0	43	14.8	4	7	270	0.00	30.143 
13:05	35.3	31.0	35.3	44	15.6	5	9	270	0.00	30.143 
13:10	35.6	32.2	35.6	42	14.8	4	9	270	0.00	30.143 
13:15	35.6	31.3	35.6	42	14.8	5	10	270	0.00	30.146 
13:20	35.3	31.9	35.3	43	15.1	4	7	270	0.00	30.146 
13:25	35.0	30.6	35.0	42	14.3	5	10	270	0.00	30.146 
13:30	34.6	30.1	34.6	42	13.9	5	10	270	0.00	30.146 
13:35	34.6	31.1	34.6	44	15.0	4	7	270	0.00	30.146 
13:40	34.9	31.4	34.9	42	14.2	4	7	270	0.00	30.146 
13:45	34.7	30.2	34.7	42	14.0	5	11	270	0.00	30.148 
13:50	34.3	30.7	34.3	43	14.2	4	7	270	0.00	30.148 
13:55	34.0	30.4	34.0	43	13.9	4	7	270	0.00	30.148 
14:00	34.1	30.5	34.1	43	14.0	4	11	270	0.00	30.152 
14:05	34.0	30.4	34.0	43	13.9	4	9	270	0.00	30.152 
14:10	34.3	34.3	34.3	44	14.7	3	6	270	0.00	30.152 
14:15	34.7	34.7	34.7	45	15.6	2	6	315	0.00	30.153 
14:20	34.9	30.5	34.9	42	14.2	5	8	270	0.00	30.153 
14:25	34.6	31.1	34.6	43	14.4	4	11	270	0.00	30.153 
14:30	34.9	34.9	34.9	44	15.2	3	9	270	0.00	30.156 
14:35	35.6	32.2	35.6	43	15.3	4	9	270	0.00	30.156 
14:40	35.9	35.9	35.9	43	15.6	3	7	270	0.00	30.156 
14:45	36.5	36.5	36.5	42	15.6	3	8	270	0.00	30.159 
14:50	36.8	36.8	36.8	40	14.8	3	7	270	0.00	30.159 
14:55	35.9	32.6	35.9	39	13.4	4	9	270	0.00	30.159 
15:00	35.8	31.5	35.8	39	13.3	5	8	270	0.00	30.160 
15:05	35.5	32.1	35.5	40	13.6	4	11	270	0.00	30.160 
15:10	35.9	32.6	35.9	39	13.4	4	6	270	0.00	30.160 
15:15	36.2	32.9	36.2	40	14.2	4	10	248	0.00	30.159 
15:20	36.2	36.2	36.2	40	14.2	3	5	270	0.00	30.159 
15:25	36.5	36.5	36.5	39	13.9	3	6	270	0.00	30.159 
15:30	36.6	36.6	36.6	36	12.2	3	6	270	0.00	30.159 
15:35	36.2	32.0	36.2	35	11.2	5	7	270	0.00	30.159 
15:40	35.9	31.7	35.9	36	11.6	5	7	270	0.00	30.159 
15:45	35.9	32.6	35.9	37	12.2	4	7	270	0.00	30.165 
15:50	35.8	32.5	35.8	37	12.1	4	7	270	0.00	30.165 
15:55	35.8	31.5	35.8	35	10.9	5	11	270	0.00	30.165 
16:00	35.8	31.5	35.8	35	10.9	5	9	270	0.00	30.174 
16:05	35.5	32.1	35.5	35	10.6	4	9	270	0.00	30.174 
16:10	35.5	32.1	35.5	35	10.6	4	9	270	0.00	30.174 
16:15	35.2	31.8	35.2	36	11.0	4	8	270	0.00	30.181 
16:20	35.2	35.2	35.2	37	11.6	3	7	270	0.00	30.181 
16:25	35.2	35.2	35.2	36	11.0	3	7	270	0.00	30.181 
16:30	35.0	31.5	35.0	35	10.1	4	7	270	0.00	30.193 
16:35	34.9	31.4	34.9	36	10.7	4	8	270	0.00	30.193 
16:40	34.6	34.6	34.6	36	10.4	3	7	270	0.00	30.193 
16:45	34.4	34.4	34.4	37	10.9	3	6	270	0.00	30.197 
16:50	34.4	34.4	34.4	38	11.5	2	5	270	0.00	30.197 
16:55	34.3	34.3	34.3	39	11.9	2	7	270	0.00	30.197 
17:00	34.1	34.1	34.1	39	11.8	2	5	270	0.00	30.207 
17:05	33.8	33.8	33.8	39	11.5	3	6	270	0.00	30.207 
17:10	33.7	33.7	33.7	39	11.4	3	5	270	0.00	30.207 
17:15	33.5	33.5	33.5	40	11.8	3	5	270	0.00	30.211 
17:20	33.4	33.4	33.4	41	12.3	2	4	270	0.00	30.211 
17:25	33.1	33.1	33.1	41	12.0	1	4	315	0.00	30.211 
17:30	32.9	32.9	32.9	41	11.8	3	5	270	0.00	30.214 
17:35	32.9	32.9	32.9	42	12.4	2	4	270	0.00	30.214 
17:40	32.8	32.8	32.8	42	12.3	2	4	270	0.00	30.214 
17:45	32.7	32.7	32.7	42	12.2	2	5	270	0.00	30.222 
17:50	32.7	32.7	32.7	42	12.2	2	4	270	0.00	30.222 
17:55	32.5	32.5	32.5	42	12.0	2	4	248	0.00	30.222 
18:00	32.5	32.5	32.5	42	12.0	2	4	248	0.00	30.228 
18:05	32.4	32.4	32.4	43	12.4	1	3	248	0.00	30.228 
18:10	32.2	32.2	32.2	43	12.2	1	3	248	0.00	30.228 
18:15	32.1	32.1	32.1	44	12.7	1	4	248	0.00	30.236 
18:20	32.1	32.1	32.1	43	12.2	2	4	248	0.00	30.236 
18:25	32.1	32.1	32.1	43	12.2	2	4	248	0.00	30.236 
18:30	31.9	31.9	31.9	44	12.5	1	3	248	0.00	30.236 
18:35	31.9	31.9	31.9	43	12.0	2	4	248	0.00	30.236 
18:40	31.8	31.8	31.8	43	11.9	2	6	248	0.00	30.236 
18:45	31.8	31.8	31.8	43	11.9	1	4	270	0.00	30.243 
18:50	31.6	31.6	31.6	43	11.7	1	3	248	0.00	30.243 
18:55	31.5	31.5	31.5	43	11.6	1	3	248	0.00	30.243 
19:00	31.3	31.3	31.3	43	11.4	1	3	248	0.00	30.248 
19:05	31.2	31.2	31.2	44	11.9	1	3	248	0.00	30.248 
19:10	31.0	31.0	31.0	44	11.7	1	3	248	0.00	30.248 
19:15	30.9	30.9	30.9	45	12.1	1	3	248	0.00	30.256 
19:20	30.7	30.7	30.7	45	11.9	0	2	248	0.00	30.256 
19:25	30.6	30.6	30.6	46	12.3	0	2	248	0.00	30.256 
19:30	30.4	30.4	30.4	46	12.1	0	1	248	0.00	30.263 
19:35	30.3	30.3	30.3	46	12.0	0	1	248	0.00	30.263 
19:40	30.1	30.1	30.1	46	11.8	0	2	248	0.00	30.263 
19:45	30.0	30.0	30.0	47	12.2	0	2	248	0.00	30.264 
19:50	30.0	30.0	30.0	47	12.2	0	2	248	0.00	30.264 
19:55	29.8	29.8	29.8	47	12.1	0	2	248	0.00	30.264 
20:00	29.7	29.7	29.7	47	12.0	0	1	248	0.00	30.266 
20:05	29.7	29.7	29.7	48	12.4	0	1	248	0.00	30.266 
20:10	29.4	29.4	29.4	48	12.2	0	2	248	0.00	30.266 
20:15	29.5	29.5	29.5	48	12.3	0	2	248	0.00	30.266 
20:20	29.5	29.5	29.5	48	12.3	0	1	248	0.00	30.266 
20:25	29.4	29.4	29.4	48	12.2	0	2	248	0.00	30.266 
20:30	29.5	29.5	29.5	47	11.8	0	2	248	0.00	30.270 
20:35	29.5	29.5	29.5	48	12.3	0	2	248	0.00	30.270 
20:40	29.5	29.5	29.5	48	12.3	0	3	248	0.00	30.270 
20:45	29.5	29.5	29.5	48	12.3	0	2	248	0.00	30.271 
20:50	29.5	29.5	29.5	48	12.3	0	1	248	0.00	30.271 
20:55	29.5	29.5	29.5	48	12.3	1	5	248	0.00	30.271 
21:00	29.5	29.5	29.5	49	12.7	0	1	248	0.00	30.275 
21:05	29.4	29.4	29.4	49	12.6	0	1	248	0.00	30.275 
21:10	29.4	29.4	29.4	49	12.6	0	3	248	0.00	30.275 
21:15	29.3	29.3	29.3	50	13.0	0	3	248	0.00	30.279 
21:20	29.3	29.3	29.3	50	13.0	0	2	248	0.00	30.279 
21:25	29.3	29.3	29.3	50	13.0	0	2	248	0.00	30.279 
21:30	29.1	29.1	29.1	50	12.8	0	2	248	0.00	30.284 
21:35	29.1	29.1	29.1	51	13.3	0	3	248	0.00	30.284 
21:40	29.1	29.1	29.1	50	12.8	1	5	248	0.00	30.284 
21:45	29.3	29.3	29.3	50	13.0	1	3	248	0.00	30.290 
21:50	29.3	29.3	29.3	50	13.0	0	3	248	0.00	30.290 
21:55	29.3	29.3	29.3	51	13.4	0	2	248	0.00	30.290 
22:00	29.3	29.3	29.3	51	13.4	1	3	248	0.00	30.291 
22:05	29.3	29.3	29.3	51	13.4	1	3	248	0.00	30.291 
22:10	29.3	29.3	29.3	51	13.4	0	3	248	0.00	30.291 
22:15	29.3	29.3	29.3	52	13.9	0	3	248	0.00	30.294 
22:20	29.3	29.3	29.3	52	13.9	0	2	248	0.00	30.294 
22:25	29.1	29.1	29.1	52	13.7	1	3	248	0.00	30.294 
22:30	29.1	29.1	29.1	52	13.7	0	3	248	0.00	30.294 
22:35	29.1	29.1	29.1	53	14.1	1	3	248	0.00	30.294 
22:40	29.1	29.1	29.1	53	14.1	0	2	248	0.00	30.294 
22:45	29.0	29.0	29.0	53	14.0	0	2	248	0.00	30.295 
22:50	28.8	28.8	28.8	54	14.3	0	0	---	0.00	30.295 
22:55	28.7	28.7	28.7	54	14.2	0	0	---	0.00	30.295 
23:00	28.4	28.4	28.4	54	13.9	0	0	---	0.00	30.294 
23:05	28.2	28.2	28.2	55	14.1	0	0	---	0.00	30.294 
23:10	27.9	27.9	27.9	56	14.3	0	2	248	0.00	30.294 
23:15	27.6	27.6	27.6	57	14.4	0	1	248	0.00	30.291 
23:20	27.6	27.6	27.6	57	14.4	0	1	248	0.00	30.291 
23:25	27.5	27.5	27.5	58	14.7	0	1	248	0.00	30.291 
23:30	27.5	27.5	27.5	59	15.1	0	2	248	0.00	30.294 
23:35	27.3	27.3	27.3	59	14.9	0	1	248	0.00	30.294 
23:40	27.3	27.3	27.3	59	14.9	0	2	248	0.00	30.294 
23:45	27.3	27.3	27.3	59	14.9	0	1	248	0.00	30.297 
23:50	27.2	27.2	27.2	60	15.2	0	2	248	0.00	30.297 
23:55	27.2	27.2	27.2	60	15.2	0	1	248	0.00	30.297 

CoCoRaHS
IN-AL-39
A2 Web Hosting
Creative Commons License
GoDaddy
search engine by freefind advanced

loaded 2018-11-13 21:35:21 • last modified 2010-11-18 10:43:29
Privacy PolicyDisclaimer
• wx.awcolley.com is powered by PmWiki v.2002016 •
• all content (unless otherwise noted) © 2018 A W Colley